createdAt,value
2023-05-18T00:01:07.658Z,12.51
2023-05-18T00:04:10.162Z,12.47
2023-05-18T00:07:13.133Z,12.52
2023-05-18T00:10:18.543Z,12.48
2023-05-18T00:13:20.595Z,12.45
2023-05-18T00:16:22.994Z,12.41
2023-05-18T00:19:25.133Z,12.36
2023-05-18T00:22:27.544Z,12.52
2023-05-18T00:25:29.722Z,12.37
2023-05-18T00:28:32.158Z,12.31
2023-05-18T00:31:36.266Z,12.29
2023-05-18T00:34:38.612Z,12.34
2023-05-18T00:37:40.579Z,12.45
2023-05-18T00:40:42.948Z,12.39
2023-05-18T00:43:46.540Z,12.33
2023-05-18T00:46:50.097Z,12.26
2023-05-18T00:49:52.293Z,12.35
2023-05-18T00:52:54.960Z,12.38
2023-05-18T00:55:57.013Z,12.37
2023-05-18T00:59:00.746Z,12.38
2023-05-18T01:02:03.118Z,12.49
2023-05-18T01:05:05.996Z,12.51
2023-05-18T01:08:08.593Z,12.58
2023-05-18T01:11:23.133Z,12.59
2023-05-18T01:14:34.178Z,12.54
2023-05-18T01:17:42.769Z,12.73
2023-05-18T01:20:49.452Z,12.64
2023-05-18T01:23:57.617Z,12.67
2023-05-18T01:27:00.700Z,12.70
2023-05-18T01:30:04.675Z,12.47
2023-05-18T01:33:10.706Z,12.51
2023-05-18T01:36:13.362Z,12.48
2023-05-18T01:39:15.707Z,12.53
2023-05-18T01:42:21.084Z,12.51
2023-05-18T01:45:26.424Z,12.50
2023-05-18T01:48:32.320Z,12.59
2023-05-18T01:51:38.017Z,12.57
2023-05-18T01:54:43.011Z,12.45
2023-05-18T01:57:46.520Z,12.42
2023-05-18T02:00:49.891Z,12.35
2023-05-18T02:03:52.303Z,12.42
2023-05-18T02:06:55.268Z,12.31
2023-05-18T02:09:57.556Z,12.32
2023-05-18T02:12:59.573Z,12.41
2023-05-18T02:16:03.979Z,12.44
2023-05-18T02:19:06.123Z,12.41
2023-05-18T02:22:08.602Z,12.25
2023-05-18T02:25:10.983Z,12.26
2023-05-18T02:28:13.301Z,12.29
2023-05-18T02:31:15.646Z,12.25
2023-05-18T02:34:18.260Z,12.22
2023-05-18T02:37:22.997Z,12.14
2023-05-18T02:40:25.052Z,12.04
2023-05-18T02:43:27.497Z,12.03
2023-05-18T02:46:29.794Z,12.09
2023-05-18T02:49:33.448Z,12.08
2023-05-18T02:52:35.561Z,12.16
2023-05-18T02:55:38.492Z,12.22
2023-05-18T02:58:43.734Z,12.15
2023-05-18T03:01:46.540Z,12.02
2023-05-18T03:04:53.977Z,12.07
2023-05-18T03:07:56.460Z,12.05
2023-05-18T03:10:59.032Z,12.08
2023-05-18T03:14:01.399Z,12.12
2023-05-18T03:17:06.036Z,12.12
2023-05-18T03:20:10.585Z,12.11
2023-05-18T03:23:13.128Z,12.02
2023-05-18T03:26:16.701Z,11.92
2023-05-18T03:29:18.713Z,12.01
2023-05-18T03:32:21.325Z,12.07
2023-05-18T03:35:23.501Z,12.07
2023-05-18T03:38:26.569Z,11.98
2023-05-18T03:41:30.128Z,12.13
2023-05-18T03:44:33.399Z,12.14
2023-05-18T03:47:35.793Z,11.96
2023-05-18T03:50:39.274Z,12.06
2023-05-18T03:53:42.220Z,11.96
2023-05-18T03:56:44.632Z,11.80
2023-05-18T03:59:46.933Z,12.00
2023-05-18T04:02:51.891Z,12.07
2023-05-18T04:05:56.245Z,11.95
2023-05-18T04:09:04.014Z,11.92
2023-05-18T04:12:06.942Z,11.86
2023-05-18T04:15:09.575Z,12.00
2023-05-18T04:18:13.719Z,12.00
2023-05-18T04:21:17.568Z,12.05
2023-05-18T04:24:21.405Z,12.02
2023-05-18T04:27:25.082Z,12.05
2023-05-18T04:30:29.574Z,11.95
2023-05-18T04:33:32.686Z,12.03
2023-05-18T04:36:35.744Z,12.04
2023-05-18T04:39:39.546Z,12.12
2023-05-18T04:42:48.267Z,12.06
2023-05-18T04:45:52.492Z,11.95
2023-05-18T04:48:58.012Z,12.12
2023-05-18T04:52:01.105Z,12.12
2023-05-18T04:55:04.463Z,12.30
2023-05-18T04:58:10.379Z,12.36
2023-05-18T05:01:15.547Z,12.32
2023-05-18T05:04:18.317Z,12.25
2023-05-18T05:07:21.390Z,12.32
2023-05-18T05:10:23.477Z,12.22
2023-05-18T05:13:26.060Z,12.23
2023-05-18T05:16:28.360Z,12.23
2023-05-18T05:19:31.206Z,12.26
2023-05-18T05:22:34.504Z,12.31
2023-05-18T05:25:36.926Z,12.38
2023-05-18T05:28:39.142Z,12.48
2023-05-18T05:31:42.024Z,12.38
2023-05-18T05:34:46.921Z,12.37
2023-05-18T05:37:49.682Z,12.42
2023-05-18T05:40:52.043Z,12.44
2023-05-18T05:43:54.409Z,12.41
2023-05-18T05:46:56.644Z,12.51
2023-05-18T05:50:00.399Z,12.48
2023-05-18T05:53:04.808Z,12.38
2023-05-18T05:56:08.448Z,12.41
2023-05-18T05:59:11.241Z,12.46
2023-05-18T06:02:14.436Z,12.42
2023-05-18T06:05:17.157Z,12.52
2023-05-18T06:08:21.780Z,12.50
2023-05-18T06:11:24.505Z,12.41
2023-05-18T06:14:26.467Z,12.50
2023-05-18T06:17:30.597Z,12.42
2023-05-18T06:20:33.495Z,12.60
2023-05-18T06:23:35.999Z,12.62
2023-05-18T06:26:38.691Z,12.49
2023-05-18T06:29:41.933Z,12.44
2023-05-18T06:32:46.845Z,12.35
2023-05-18T06:35:49.526Z,12.44
2023-05-18T06:38:52.678Z,12.45
2023-05-18T06:41:55.378Z,12.63
2023-05-18T06:44:57.606Z,12.62
2023-05-18T06:48:02.473Z,12.74
2023-05-18T06:51:05.275Z,12.86
2023-05-18T06:54:08.582Z,12.87
2023-05-18T06:57:10.873Z,12.69
2023-05-18T07:00:13.812Z,12.81
2023-05-18T07:03:16.526Z,12.82
2023-05-18T07:06:19.010Z,12.69
2023-05-18T07:09:22.472Z,12.56
2023-05-18T07:12:26.212Z,12.56
2023-05-18T07:15:28.399Z,12.70
2023-05-18T07:18:34.433Z,12.68
2023-05-18T07:21:36.583Z,12.77
2023-05-18T07:24:39.070Z,12.77
2023-05-18T07:27:41.786Z,12.78
2023-05-18T07:30:44.120Z,12.74
2023-05-18T07:33:46.220Z,12.95
2023-05-18T07:36:48.898Z,12.92
2023-05-18T07:39:51.446Z,12.89
2023-05-18T07:42:53.844Z,12.85
2023-05-18T07:45:55.899Z,12.90
2023-05-18T07:48:58.238Z,13.08
2023-05-18T07:52:02.224Z,13.01
2023-05-18T07:55:04.826Z,13.13
2023-05-18T07:58:06.810Z,13.20
2023-05-18T08:01:09.048Z,13.22
2023-05-18T08:04:12.613Z,13.37
2023-05-18T08:07:14.990Z,13.34
2023-05-18T08:10:17.581Z,13.45
2023-05-18T08:13:19.697Z,13.55
2023-05-18T08:16:22.026Z,13.46
2023-05-18T08:19:24.418Z,13.47
2023-05-18T08:22:26.775Z,13.71
2023-05-18T08:25:29.056Z,13.88
2023-05-18T08:28:32.013Z,13.96
2023-05-18T08:31:34.050Z,14.15
2023-05-18T08:34:36.842Z,14.44
2023-05-18T08:37:39.853Z,14.35
2023-05-18T08:40:43.594Z,14.31
2023-05-18T08:43:47.106Z,14.46
2023-05-18T08:46:51.147Z,14.45
2023-05-18T08:49:55.905Z,14.79
2023-05-18T08:53:01.175Z,14.88
2023-05-18T08:56:03.341Z,15.11
2023-05-18T08:59:08.465Z,15.40
2023-05-18T09:02:10.892Z,15.39
2023-05-18T09:05:14.144Z,15.22
2023-05-18T09:08:16.335Z,15.42
2023-05-18T09:11:18.803Z,15.87
2023-05-18T09:14:25.777Z,16.15
2023-05-18T09:17:28.225Z,16.22
2023-05-18T09:20:30.525Z,16.12
2023-05-18T09:23:33.490Z,16.04
2023-05-18T09:26:35.703Z,15.94
2023-05-18T09:29:51.153Z,15.73
2023-05-18T09:32:53.432Z,15.60
2023-05-18T09:35:55.959Z,15.59
2023-05-18T09:38:58.807Z,15.87
2023-05-18T09:42:02.805Z,16.22
2023-05-18T09:45:15.607Z,16.45
2023-05-18T09:48:18.898Z,16.65
2023-05-18T09:51:25.154Z,16.69
2023-05-18T09:54:27.993Z,16.18
2023-05-18T09:57:30.034Z,16.18
2023-05-18T10:00:33.079Z,16.35
2023-05-18T10:03:40.618Z,16.27
2023-05-18T10:06:49.441Z,16.07
2023-05-18T10:10:01.591Z,16.24
2023-05-18T10:13:04.513Z,15.96
2023-05-18T10:16:08.075Z,16.03
2023-05-18T10:19:11.838Z,15.97
2023-05-18T10:22:16.439Z,16.03
2023-05-18T10:25:19.959Z,16.09
2023-05-18T10:28:27.489Z,15.99
2023-05-18T10:31:30.714Z,16.14
2023-05-18T10:34:33.877Z,15.97
2023-05-18T10:37:38.131Z,15.84
2023-05-18T10:40:42.456Z,15.86
2023-05-18T10:43:46.013Z,15.63
2023-05-18T10:46:49.411Z,15.90
2023-05-18T10:49:52.365Z,16.21
2023-05-18T10:52:55.819Z,16.11
2023-05-18T10:55:58.470Z,16.24
2023-05-18T10:59:00.925Z,16.06
2023-05-18T11:02:03.742Z,16.15
2023-05-18T11:05:06.888Z,16.16
2023-05-18T11:08:09.840Z,16.11
2023-05-18T11:11:12.221Z,16.13
2023-05-18T11:14:15.171Z,16.26
2023-05-18T11:17:26.104Z,16.31
2023-05-18T11:20:28.201Z,16.16
2023-05-18T11:23:33.634Z,16.01
2023-05-18T11:26:43.399Z,15.84
2023-05-18T11:29:47.559Z,15.90
2023-05-18T11:32:51.101Z,15.89
2023-05-18T11:36:04.287Z,15.85
2023-05-18T11:39:11.275Z,15.64
2023-05-18T11:42:18.098Z,15.62
2023-05-18T11:45:20.173Z,15.53
2023-05-18T11:48:26.146Z,15.65
2023-05-18T11:51:31.076Z,15.67
2023-05-18T11:54:34.365Z,15.77
2023-05-18T11:57:36.386Z,15.62
2023-05-18T12:00:39.369Z,15.49
2023-05-18T12:03:41.956Z,15.55
2023-05-18T12:06:44.248Z,15.49
2023-05-18T12:09:47.544Z,15.52
2023-05-18T12:12:51.809Z,15.57
2023-05-18T12:15:55.812Z,15.61
2023-05-18T12:18:59.996Z,15.82
2023-05-18T12:22:04.405Z,15.75
2023-05-18T12:25:07.353Z,15.66
2023-05-18T12:28:10.057Z,15.83
2023-05-18T12:31:13.196Z,15.91
2023-05-18T12:34:16.253Z,15.93
2023-05-18T12:37:20.086Z,16.02
2023-05-18T12:40:23.888Z,16.04
2023-05-18T12:43:27.048Z,16.23
2023-05-18T12:46:29.694Z,16.16
2023-05-18T12:49:42.440Z,16.16
2023-05-18T12:52:44.756Z,16.08
2023-05-18T12:55:56.427Z,16.12
2023-05-18T12:58:59.720Z,16.03
2023-05-18T13:02:01.905Z,16.05
2023-05-18T13:05:08.812Z,16.08
2023-05-18T13:08:15.212Z,16.03
2023-05-18T13:11:17.735Z,16.15
2023-05-18T13:14:21.401Z,16.47
2023-05-18T13:17:23.900Z,16.55
2023-05-18T13:20:36.487Z,16.70
2023-05-18T13:23:39.525Z,16.42
2023-05-18T13:26:41.644Z,16.41
2023-05-18T13:29:44.096Z,16.41
2023-05-18T13:32:46.685Z,16.11
2023-05-18T13:35:49.961Z,16.08
2023-05-18T13:38:52.411Z,15.98
2023-05-18T13:41:54.851Z,15.91
2023-05-18T13:44:56.952Z,15.99
2023-05-18T13:47:59.477Z,16.13
2023-05-18T13:51:01.640Z,16.14
2023-05-18T13:54:04.472Z,16.28
2023-05-18T13:57:07.932Z,16.19
2023-05-18T14:00:13.353Z,16.32
2023-05-18T14:03:17.633Z,16.06
2023-05-18T14:06:20.881Z,15.99
2023-05-18T14:09:23.234Z,15.98
2023-05-18T14:12:25.277Z,15.79
2023-05-18T14:15:27.725Z,15.79
2023-05-18T14:18:29.766Z,15.56
2023-05-18T14:21:32.208Z,15.45
2023-05-18T14:24:34.204Z,15.32
2023-05-18T14:27:36.840Z,15.34
2023-05-18T14:30:38.926Z,15.20
2023-05-18T14:33:41.727Z,15.35
2023-05-18T14:36:43.837Z,15.38
2023-05-18T14:39:46.346Z,15.53
2023-05-18T14:42:48.479Z,15.80
2023-05-18T14:46:04.258Z,15.94
2023-05-18T14:49:10.084Z,15.89
2023-05-18T14:52:12.578Z,16.09
2023-05-18T14:55:14.717Z,15.86
2023-05-18T14:58:17.178Z,15.85
2023-05-18T15:01:19.893Z,15.70
2023-05-18T15:04:22.533Z,15.60
2023-05-18T15:07:24.617Z,15.39
2023-05-18T15:10:27.007Z,15.31
2023-05-18T15:13:29.010Z,15.29
2023-05-18T15:16:31.786Z,15.24
2023-05-18T15:19:34.034Z,15.21
2023-05-18T15:22:38.288Z,15.14
2023-05-18T15:25:40.825Z,15.29
2023-05-18T15:28:44.910Z,15.33
2023-05-18T15:31:47.892Z,15.49
2023-05-18T15:34:51.524Z,15.61
2023-05-18T15:37:53.588Z,15.60
2023-05-18T15:40:56.042Z,15.59
2023-05-18T15:43:58.020Z,15.63
2023-05-18T15:47:00.847Z,15.62
2023-05-18T15:50:03.203Z,15.47
2023-05-18T15:53:05.987Z,15.59
2023-05-18T15:56:08.085Z,15.54
2023-05-18T15:59:10.580Z,15.43
2023-05-18T16:02:12.732Z,15.46
2023-05-18T16:05:15.212Z,15.52
2023-05-18T16:08:17.313Z,15.55
2023-05-18T16:11:19.743Z,15.28
2023-05-18T16:14:21.823Z,15.38
2023-05-18T16:17:24.323Z,15.38
2023-05-18T16:20:26.464Z,15.62
2023-05-18T16:23:28.833Z,15.50
2023-05-18T16:26:32.355Z,15.52
2023-05-18T16:29:34.829Z,15.66
2023-05-18T16:32:37.124Z,15.58
2023-05-18T16:35:40.573Z,15.50
2023-05-18T16:38:42.672Z,15.47
2023-05-18T16:41:44.953Z,15.39
2023-05-18T16:44:47.063Z,15.20
2023-05-18T16:47:49.890Z,15.24
2023-05-18T16:50:52.143Z,15.10
2023-05-18T16:53:55.507Z,15.11
2023-05-18T16:56:57.652Z,15.02
2023-05-18T17:00:01.179Z,14.86
2023-05-18T17:03:04.123Z,14.79
2023-05-18T17:06:08.471Z,14.85
2023-05-18T17:09:10.649Z,14.64
2023-05-18T17:12:13.157Z,14.65
2023-05-18T17:15:16.331Z,14.69
2023-05-18T17:18:19.067Z,14.63
2023-05-18T17:21:21.288Z,14.36
2023-05-18T17:24:23.594Z,14.39
2023-05-18T17:27:25.610Z,14.34
2023-05-18T17:30:28.146Z,14.23
2023-05-18T17:33:30.232Z,14.24
2023-05-18T17:36:32.908Z,14.10
2023-05-18T17:39:35.061Z,14.04
2023-05-18T17:42:37.381Z,13.99
2023-05-18T17:45:39.383Z,13.94
2023-05-18T17:48:41.756Z,13.90
2023-05-18T17:51:43.899Z,13.92
2023-05-18T17:54:46.428Z,14.11
2023-05-18T17:57:48.519Z,13.93
2023-05-18T18:00:50.958Z,13.96
2023-05-18T18:03:53.482Z,13.92
2023-05-18T18:06:55.934Z,14.12
2023-05-18T18:09:58.270Z,14.03
2023-05-18T18:13:00.700Z,13.85
2023-05-18T18:16:03.339Z,13.72
2023-05-18T18:19:05.509Z,13.69
2023-05-18T18:22:07.935Z,13.65
2023-05-18T18:25:10.053Z,13.63
2023-05-18T18:28:15.122Z,13.70
2023-05-18T18:31:17.623Z,13.71
2023-05-18T18:34:19.977Z,13.71
2023-05-18T18:37:22.086Z,13.78
2023-05-18T18:40:24.532Z,13.68
2023-05-18T18:43:27.886Z,13.48
2023-05-18T18:46:30.337Z,13.53
2023-05-18T18:49:32.558Z,13.51
2023-05-18T18:52:34.976Z,13.42
2023-05-18T18:55:37.404Z,13.38
2023-05-18T18:58:39.880Z,13.48
2023-05-18T19:01:42.028Z,13.45
2023-05-18T19:04:44.454Z,13.43
2023-05-18T19:07:46.748Z,13.45
2023-05-18T19:10:49.178Z,13.44
2023-05-18T19:13:51.332Z,13.42
2023-05-18T19:16:54.719Z,13.42
2023-05-18T19:19:56.843Z,13.43
2023-05-18T19:22:59.277Z,13.39
2023-05-18T19:26:02.182Z,13.36
2023-05-18T19:29:04.744Z,13.29
2023-05-18T19:32:06.880Z,13.41
2023-05-18T19:35:09.567Z,13.35
2023-05-18T19:38:11.604Z,13.52
2023-05-18T19:41:14.508Z,13.51
2023-05-18T19:44:16.663Z,13.41
2023-05-18T19:47:19.119Z,13.45
2023-05-18T19:50:21.390Z,13.49
2023-05-18T19:53:23.812Z,13.43
2023-05-18T19:56:26.195Z,13.43
2023-05-18T19:59:29.534Z,13.47
2023-05-18T20:02:32.035Z,13.47
2023-05-18T20:05:35.495Z,13.51
2023-05-18T20:08:37.982Z,13.62
2023-05-18T20:11:40.528Z,13.55
2023-05-18T20:14:43.447Z,13.48
2023-05-18T20:17:46.114Z,13.56
2023-05-18T20:20:49.937Z,13.51
2023-05-18T20:23:52.314Z,13.44
2023-05-18T20:26:54.326Z,13.46
2023-05-18T20:29:56.714Z,13.44
2023-05-18T20:32:58.898Z,13.52
2023-05-18T20:36:01.771Z,13.44
2023-05-18T20:39:04.254Z,13.43
2023-05-18T20:42:06.973Z,13.40
2023-05-18T20:45:09.400Z,13.39
2023-05-18T20:48:12.322Z,13.45
2023-05-18T20:51:19.261Z,13.53
2023-05-18T20:54:23.173Z,13.48
2023-05-18T20:57:25.213Z,13.50
2023-05-18T21:00:27.647Z,13.48
2023-05-18T21:03:30.407Z,13.49
2023-05-18T21:06:32.908Z,13.48
2023-05-18T21:09:35.031Z,13.61
2023-05-18T21:12:38.004Z,13.56
2023-05-18T21:15:40.103Z,13.57
2023-05-18T21:18:42.602Z,13.62
2023-05-18T21:21:44.745Z,13.62
2023-05-18T21:24:47.107Z,13.64
2023-05-18T21:27:49.248Z,13.72
2023-05-18T21:30:52.124Z,13.74
2023-05-18T21:33:54.276Z,13.75
2023-05-18T21:36:56.809Z,13.71
2023-05-18T21:39:59.337Z,13.69
2023-05-18T21:43:02.642Z,13.61
2023-05-18T21:46:05.949Z,13.77
2023-05-18T21:49:10.375Z,13.74
2023-05-18T21:52:15.388Z,13.73
2023-05-18T21:55:17.975Z,13.69
2023-05-18T21:58:20.794Z,13.69
2023-05-18T22:01:24.002Z,13.79
2023-05-18T22:04:26.588Z,13.78
2023-05-18T22:07:28.954Z,13.74
2023-05-18T22:10:32.462Z,13.74
2023-05-18T22:13:35.018Z,13.76
2023-05-18T22:16:37.404Z,13.76
2023-05-18T22:19:39.554Z,13.87
2023-05-18T22:22:42.072Z,13.86
2023-05-18T22:25:44.922Z,13.77
2023-05-18T22:28:47.451Z,13.81
2023-05-18T22:31:49.446Z,13.68
2023-05-18T22:34:52.176Z,13.73
2023-05-18T22:37:54.685Z,13.70
2023-05-18T22:40:57.053Z,13.64
2023-05-18T22:43:59.420Z,13.67
2023-05-18T22:47:02.392Z,13.57
2023-05-18T22:50:04.951Z,13.65
2023-05-18T22:53:10.351Z,13.55
2023-05-18T22:56:16.084Z,13.57
2023-05-18T22:59:18.488Z,13.58
2023-05-18T23:02:20.647Z,13.55
2023-05-18T23:05:23.209Z,13.58
2023-05-18T23:08:26.082Z,13.62
2023-05-18T23:11:28.773Z,13.59
2023-05-18T23:14:32.519Z,13.49
2023-05-18T23:17:38.914Z,13.53
2023-05-18T23:20:42.000Z,13.49
2023-05-18T23:23:45.918Z,13.43
2023-05-18T23:26:48.034Z,13.40
2023-05-18T23:29:50.515Z,13.42
2023-05-18T23:32:53.164Z,13.36
2023-05-18T23:35:59.829Z,13.29
2023-05-18T23:39:02.340Z,13.17
2023-05-18T23:42:05.018Z,13.13
2023-05-18T23:45:07.452Z,13.10
2023-05-18T23:48:10.247Z,13.08
2023-05-18T23:51:16.516Z,13.12
2023-05-18T23:54:19.414Z,13.16
2023-05-18T23:57:23.924Z,13.19
